Time;durP1;ratioP1;P1;durP2;ratioP2;P2;SDS_P1;SDS_P2;PMS_P1;PMS_P2;Temp;Humidity;BMP_temperature;BMP_pressure;BME280_temperature;BME280_humidity;BME280_pressure;Samples;Min_cycle;Max_cycle;Signal;HPM_P1;HPM_P2
2021/05/30 00:02:23;;;;;;;15.63;12.70;;;;;;;;;;5113966;28;20451;-56
2021/05/30 00:04:51;;;;;;;17.63;13.87;;;;;;;;;;5113702;28;20490;-53
2021/05/30 00:07:22;;;;;;;16.77;13.07;;;;;;;;;;5114842;28;20447;-61
2021/05/30 00:09:48;;;;;;;16.23;12.20;;;;;;;;;;5114998;28;20455;-56
2021/05/30 00:12:15;;;;;;;19.00;12.63;;;;;;;;;;5114264;28;20424;-57
2021/05/30 00:14:42;;;;;;;17.67;12.17;;;;;;;;;;5114147;28;20440;-57
2021/05/30 00:17:10;;;;;;;19.37;13.50;;;;;;;;;;5115476;28;20441;-58
2021/05/30 00:19:37;;;;;;;20.27;13.73;;;;;;;;;;5115155;28;20482;-58
2021/05/30 00:22:04;;;;;;;20.50;14.23;;;;;;;;;;5115135;28;20470;-57
2021/05/30 00:24:32;;;;;;;22.80;17.90;;;;;;;;;;5113571;28;20509;-56
2021/05/30 00:26:59;;;;;;;18.73;15.90;;;;;;;;;;5095492;28;20436;-58
2021/05/30 00:29:37;;;;;;;22.70;17.83;;;;;;;;;;5094961;28;20452;-55
2021/05/30 00:32:03;;;;;;;18.40;13.43;;;;;;;;;;5098004;28;20516;-58
2021/05/30 00:34:31;;;;;;;16.90;12.50;;;;;;;;;;5098392;28;20443;-52
2021/05/30 00:36:59;;;;;;;15.57;12.90;;;;;;;;;;5098457;28;20441;-55
2021/05/30 00:39:26;;;;;;;17.73;13.87;;;;;;;;;;5105553;28;20435;-52
2021/05/30 00:42:00;;;;;;;17.63;12.87;;;;;;;;;;5118833;28;20487;-59
2021/05/30 00:44:29;;;;;;;18.63;13.23;;;;;;;;;;5147653;27;20676;-54
2021/05/30 00:46:56;;;;;;;17.77;13.10;;;;;;;;;;5159876;27;20501;-57
2021/05/30 00:49:24;;;;;;;19.87;13.83;;;;;;;;;;5160082;27;20460;-55
2021/05/30 00:51:52;;;;;;;16.07;11.87;;;;;;;;;;5143143;27;20505;-60
2021/05/30 00:54:19;;;;;;;23.33;13.53;;;;;;;;;;5137326;28;20442;-49
2021/05/30 00:56:46;;;;;;;17.83;13.57;;;;;;;;;;5137934;28;20442;-59
2021/05/30 00:59:14;;;;;;;20.03;15.13;;;;;;;;;;5137711;28;20447;-52
2021/05/30 01:01:42;;;;;;;18.63;14.30;;;;;;;;;;5138261;28;20509;-58
2021/05/30 01:04:10;;;;;;;17.40;12.60;;;;;;;;;;5138774;28;20516;-54
2021/05/30 01:06:38;;;;;;;17.63;12.47;;;;;;;;;;5138164;28;20463;-52
2021/05/30 01:09:11;;;;;;;18.60;12.73;;;;;;;;;;5137322;28;20461;-54
2021/05/30 01:11:38;;;;;;;18.80;13.97;;;;;;;;;;5138530;28;20486;-53
2021/05/30 01:14:07;;;;;;;18.33;12.93;;;;;;;;;;5137723;28;20572;-53
2021/05/30 01:16:40;;;;;;;13.77;11.70;;;;;;;;;;5138679;28;20469;-56
2021/05/30 01:19:09;;;;;;;17.03;13.00;;;;;;;;;;5139000;28;20456;-57
2021/05/30 01:21:36;;;;;;;18.03;13.60;;;;;;;;;;5138716;28;20450;-56
2021/05/30 01:24:04;;;;;;;16.90;13.20;;;;;;;;;;5138020;28;20474;-55
2021/05/30 01:26:31;;;;;;;15.13;12.13;;;;;;;;;;5137610;28;20458;-49
2021/05/30 01:29:04;;;;;;;16.50;12.57;;;;;;;;;;5138575;28;20490;-59
2021/05/30 01:31:31;;;;;;;18.00;12.43;;;;;;;;;;5137632;28;20442;-59
2021/05/30 01:33:58;;;;;;;18.40;11.80;;;;;;;;;;5137598;28;20463;-57
2021/05/30 01:36:25;;;;;;;15.43;12.80;;;;;;;;;;5121100;28;20462;-55
2021/05/30 01:38:51;;;;;;;18.17;12.87;;;;;;;;;;5119165;28;20466;-57
2021/05/30 01:41:20;;;;;;;18.70;14.00;;;;;;;;;;5136356;28;20419;-60
2021/05/30 01:43:47;;;;;;;15.40;12.77;;;;;;;;;;5117445;28;20471;-56
2021/05/30 01:46:17;;;;;;;14.07;11.60;;;;;;;;;;5129343;28;20440;-52
2021/05/30 01:48:44;;;;;;;15.00;12.20;;;;;;;;;;5138000;28;20461;-60
2021/05/30 01:51:12;;;;;;;13.40;10.87;;;;;;;;;;5123080;28;20479;-54
2021/05/30 01:53:43;;;;;;;18.40;12.10;;;;;;;;;;5122192;28;20445;-59
2021/05/30 01:58:56;;;;;;;18.47;11.13;;;;;;;;;;5115631;28;20638;-55
2021/05/30 02:01:23;;;;;;;15.23;12.00;;;;;;;;;;5116285;28;20484;-55
2021/05/30 02:03:57;;;;;;;14.77;10.50;;;;;;;;;;5117661;28;20510;-60
2021/05/30 02:06:24;;;;;;;17.93;11.33;;;;;;;;;;5117431;28;20497;-60
2021/05/30 02:08:52;;;;;;;20.17;12.80;;;;;;;;;;5117521;28;20554;-59
2021/05/30 02:11:21;;;;;;;19.63;11.87;;;;;;;;;;5117213;28;20452;-59
2021/05/30 02:13:48;;;;;;;21.00;14.00;;;;;;;;;;5117681;28;20459;-51
2021/05/30 02:16:17;;;;;;;16.30;11.43;;;;;;;;;;5117464;28;20481;-55
2021/05/30 02:18:43;;;;;;;13.20;10.83;;;;;;;;;;5116959;28;20485;-57
2021/05/30 02:21:10;;;;;;;14.70;11.70;;;;;;;;;;5117419;28;20455;-56
2021/05/30 02:23:37;;;;;;;17.50;12.70;;;;;;;;;;5119870;28;20542;-57
2021/05/30 02:26:05;;;;;;;14.60;11.57;;;;;;;;;;5121320;28;20438;-58
2021/05/30 02:28:37;;;;;;;15.93;12.23;;;;;;;;;;5118040;28;20449;-51
2021/05/30 02:31:04;;;;;;;17.00;11.43;;;;;;;;;;5117178;28;20512;-57
2021/05/30 02:33:32;;;;;;;18.40;12.37;;;;;;;;;;5117104;28;20449;-52
2021/05/30 02:35:58;;;;;;;14.73;11.50;;;;;;;;;;5116779;28;20462;-54
2021/05/30 02:38:25;;;;;;;16.50;12.20;;;;;;;;;;5116944;28;20436;-53
2021/05/30 02:41:04;;;;;;;14.57;11.60;;;;;;;;;;5117059;28;20431;-56
2021/05/30 02:43:31;;;;;;;16.80;11.70;;;;;;;;;;5117113;28;20485;-54
2021/05/30 02:45:58;;;;;;;17.07;11.80;;;;;;;;;;5117348;28;20436;-59
2021/05/30 02:48:25;;;;;;;17.40;13.80;;;;;;;;;;5116498;28;20515;-56
2021/05/30 02:50:58;;;;;;;18.37;11.60;;;;;;;;;;5129117;28;20519;-54
2021/05/30 02:53:25;;;;;;;15.57;11.83;;;;;;;;;;5136806;28;20450;-53
2021/05/30 02:55:52;;;;;;;16.87;12.13;;;;;;;;;;5137341;28;20480;-59
2021/05/30 02:58:19;;;;;;;21.57;12.77;;;;;;;;;;5136863;28;20443;-55
2021/05/30 03:00:46;;;;;;;16.60;11.60;;;;;;;;;;5137494;28;20442;-58
2021/05/30 03:03:13;;;;;;;14.20;11.23;;;;;;;;;;5137738;28;20489;-56
2021/05/30 03:05:42;;;;;;;15.63;11.03;;;;;;;;;;5136993;28;20446;-57
2021/05/30 03:08:10;;;;;;;15.63;12.07;;;;;;;;;;5137203;28;20455;-54
2021/05/30 03:10:37;;;;;;;12.83;10.20;;;;;;;;;;5137315;28;20462;-57
2021/05/30 03:13:04;;;;;;;15.50;12.50;;;;;;;;;;5137151;28;20461;-57
2021/05/30 03:15:31;;;;;;;19.70;13.83;;;;;;;;;;5137018;28;20447;-52
2021/05/30 03:17:58;;;;;;;17.80;12.77;;;;;;;;;;5137169;28;20921;-57
2021/05/30 03:20:25;;;;;;;21.03;12.20;;;;;;;;;;5136686;28;20489;-57
2021/05/30 03:22:52;;;;;;;17.43;11.77;;;;;;;;;;5136477;28;20460;-56
2021/05/30 03:25:23;;;;;;;15.70;11.30;;;;;;;;;;5136979;28;20415;-56
2021/05/30 03:27:50;;;;;;;14.67;12.00;;;;;;;;;;5136884;28;20474;-57
2021/05/30 03:30:17;;;;;;;13.70;11.20;;;;;;;;;;5137093;28;20446;-53
2021/05/30 03:32:44;;;;;;;13.13;11.03;;;;;;;;;;5136436;28;20453;-55
2021/05/30 03:35:11;;;;;;;15.00;12.10;;;;;;;;;;5136962;28;20442;-53
2021/05/30 03:37:51;;;;;;;16.73;12.57;;;;;;;;;;5136605;28;20470;-54
2021/05/30 03:40:28;;;;;;;15.77;11.27;;;;;;;;;;5136549;28;20485;-61
2021/05/30 03:42:55;;;;;;;20.40;12.63;;;;;;;;;;5137338;28;20442;-57
2021/05/30 03:45:29;;;;;;;15.47;12.57;;;;;;;;;;5136776;28;20624;-54
2021/05/30 03:47:56;;;;;;;14.27;11.10;;;;;;;;;;5136676;28;20488;-50
2021/05/30 03:50:23;;;;;;;16.63;11.73;;;;;;;;;;5135612;28;20474;-59
2021/05/30 03:52:50;;;;;;;14.67;11.60;;;;;;;;;;5136528;28;20464;-59
2021/05/30 03:55:17;;;;;;;13.90;11.20;;;;;;;;;;5136514;28;20451;-59
2021/05/30 03:57:46;;;;;;;15.27;10.83;;;;;;;;;;5136289;28;20519;-56
2021/05/30 04:00:15;;;;;;;14.60;10.77;;;;;;;;;;5135861;28;20443;-59
2021/05/30 04:02:42;;;;;;;15.90;12.00;;;;;;;;;;5136077;28;20637;-61
2021/05/30 04:05:10;;;;;;;18.00;11.47;;;;;;;;;;5137608;28;20545;-59
2021/05/30 04:07:37;;;;;;;15.63;11.47;;;;;;;;;;5140198;28;20462;-61
2021/05/30 04:10:12;;;;;;;13.93;9.90;;;;;;;;;;5140874;28;20754;-54
2021/05/30 04:12:39;;;;;;;18.80;12.07;;;;;;;;;;5122068;28;20483;-57
2021/05/30 04:15:07;;;;;;;12.80;9.80;;;;;;;;;;5140449;28;20458;-60
2021/05/30 04:17:35;;;;;;;12.63;9.67;;;;;;;;;;5140583;28;20517;-57
2021/05/30 04:20:03;;;;;;;13.13;10.30;;;;;;;;;;5124591;28;20451;-56
2021/05/30 04:22:30;;;;;;;13.17;9.90;;;;;;;;;;5135716;28;20549;-54
2021/05/30 04:24:57;;;;;;;13.27;9.50;;;;;;;;;;5138974;28;20641;-59
2021/05/30 04:27:26;;;;;;;13.27;9.80;;;;;;;;;;5128268;28;20446;-55
2021/05/30 04:29:53;;;;;;;12.50;9.93;;;;;;;;;;5134962;28;20454;-54
2021/05/30 04:32:20;;;;;;;11.47;9.37;;;;;;;;;;5118361;28;20455;-61
2021/05/30 04:34:48;;;;;;;12.77;10.17;;;;;;;;;;5132100;28;20450;-58
2021/05/30 04:37:17;;;;;;;13.00;10.37;;;;;;;;;;5133479;28;20435;-58
2021/05/30 04:39:46;;;;;;;12.67;9.40;;;;;;;;;;5128359;28;20526;-60
2021/05/30 04:42:13;;;;;;;17.33;9.90;;;;;;;;;;5135573;28;20517;-61
2021/05/30 04:44:40;;;;;;;11.73;9.47;;;;;;;;;;5122088;28;20685;-58
2021/05/30 04:47:12;;;;;;;13.60;9.80;;;;;;;;;;5127380;28;20459;-52
2021/05/30 04:49:39;;;;;;;13.23;9.90;;;;;;;;;;5121842;28;20497;-53
2021/05/30 04:52:22;;;;;;;11.73;9.53;;;;;;;;;;5131366;28;20434;-56
2021/05/30 04:54:49;;;;;;;13.33;9.60;;;;;;;;;;5118275;28;20447;-54
2021/05/30 04:57:17;;;;;;;11.33;9.10;;;;;;;;;;5118388;28;20447;-56
2021/05/30 04:59:44;;;;;;;11.30;9.50;;;;;;;;;;5131644;28;20431;-57
2021/05/30 05:02:12;;;;;;;11.67;8.70;;;;;;;;;;5117988;28;20459;-58
2021/05/30 05:04:44;;;;;;;16.70;8.90;;;;;;;;;;5122976;28;20599;-58
2021/05/30 05:07:11;;;;;;;15.07;9.00;;;;;;;;;;5128361;28;20461;-58
2021/05/30 05:09:38;;;;;;;12.70;9.93;;;;;;;;;;5118095;28;20442;-54
2021/05/30 05:12:10;;;;;;;17.40;9.40;;;;;;;;;;5133035;28;20430;-54
2021/05/30 05:14:37;;;;;;;16.17;9.80;;;;;;;;;;5138360;28;20513;-56
2021/05/30 05:17:04;;;;;;;12.03;9.67;;;;;;;;;;5137040;28;20455;-58
2021/05/30 05:19:30;;;;;;;10.37;8.47;;;;;;;;;;5137929;28;20464;-60
2021/05/30 05:21:57;;;;;;;11.03;9.60;;;;;;;;;;5138537;28;20457;-58
2021/05/30 05:24:26;;;;;;;12.63;8.90;;;;;;;;;;5137700;28;20581;-55
2021/05/30 05:26:56;;;;;;;13.07;9.50;;;;;;;;;;5137327;28;20442;-57
2021/05/30 05:29:22;;;;;;;14.60;10.10;;;;;;;;;;5137561;28;20679;-53
2021/05/30 05:31:49;;;;;;;9.67;8.60;;;;;;;;;;5136259;28;20431;-55
2021/05/30 05:34:16;;;;;;;9.30;7.80;;;;;;;;;;5124445;28;20427;-55
2021/05/30 05:36:44;;;;;;;11.87;9.70;;;;;;;;;;5116143;28;20463;-57
2021/05/30 05:39:11;;;;;;;13.57;10.37;;;;;;;;;;5121112;28;20510;-55
2021/05/30 05:41:38;;;;;;;13.03;8.87;;;;;;;;;;5122461;28;20476;-58
2021/05/30 05:44:06;;;;;;;10.27;8.03;;;;;;;;;;5134461;28;20493;-54
2021/05/30 05:46:33;;;;;;;12.03;8.60;;;;;;;;;;5122776;28;20447;-56
2021/05/30 05:49:05;;;;;;;11.43;8.63;;;;;;;;;;5118883;28;20444;-53
2021/05/30 05:51:31;;;;;;;11.93;8.63;;;;;;;;;;5122727;28;20573;-58
2021/05/30 05:53:58;;;;;;;11.73;8.80;;;;;;;;;;5135216;28;20435;-58
2021/05/30 05:56:28;;;;;;;14.27;9.90;;;;;;;;;;5135239;28;20483;-61
2021/05/30 05:58:55;;;;;;;10.83;8.90;;;;;;;;;;5107688;28;20488;-55
2021/05/30 06:01:23;;;;;;;10.70;8.17;;;;;;;;;;5105282;28;20506;-61
2021/05/30 06:03:54;;;;;;;8.30;6.97;;;;;;;;;;5108203;28;20519;-54
2021/05/30 06:06:21;;;;;;;8.37;7.00;;;;;;;;;;5104835;28;20478;-55
2021/05/30 06:08:48;;;;;;;10.40;7.33;;;;;;;;;;5103828;28;20439;-53
2021/05/30 06:11:20;;;;;;;10.20;7.53;;;;;;;;;;5094585;28;20460;-58
2021/05/30 06:13:48;;;;;;;12.47;7.17;;;;;;;;;;5108735;28;20447;-55
2021/05/30 06:16:15;;;;;;;8.60;6.90;;;;;;;;;;5101923;28;20511;-55
2021/05/30 06:18:48;;;;;;;14.80;7.57;;;;;;;;;;5110279;28;20460;-52
2021/05/30 06:21:18;;;;;;;13.20;8.60;;;;;;;;;;5105656;28;20452;-58
2021/05/30 06:23:45;;;;;;;11.47;7.50;;;;;;;;;;5099231;28;20469;-61
2021/05/30 06:26:13;;;;;;;9.33;6.80;;;;;;;;;;5102204;28;20436;-60
2021/05/30 06:28:40;;;;;;;7.73;6.90;;;;;;;;;;5097340;28;20523;-61
2021/05/30 06:31:06;;;;;;;8.23;7.17;;;;;;;;;;5097705;28;20482;-57
2021/05/30 06:33:34;;;;;;;8.93;6.90;;;;;;;;;;5102708;28;20880;-59
2021/05/30 06:36:03;;;;;;;11.13;6.77;;;;;;;;;;5110786;28;20442;-61
2021/05/30 06:38:31;;;;;;;8.47;6.77;;;;;;;;;;5097842;28;20484;-55
2021/05/30 06:41:02;;;;;;;11.90;6.93;;;;;;;;;;5106389;28;20447;-60
2021/05/30 06:43:29;;;;;;;9.37;7.33;;;;;;;;;;5100197;28;20569;-53
2021/05/30 06:45:56;;;;;;;9.70;7.90;;;;;;;;;;5098020;28;20554;-59
2021/05/30 06:48:23;;;;;;;8.60;6.40;;;;;;;;;;5092925;28;20449;-60
2021/05/30 06:56:18;;;;;;;8.20;6.10;;;;;;;;;;1505559;26;20489;-59
2021/05/30 06:58:45;;;;;;;9.10;5.97;;;;;;;;;;5071375;28;20457;-57
2021/05/30 07:01:16;;;;;;;7.60;5.13;;;;;;;;;;5071797;28;20445;-54
2021/05/30 07:03:43;;;;;;;8.10;6.00;;;;;;;;;;5072496;28;20489;-54
2021/05/30 07:06:10;;;;;;;7.13;5.10;;;;;;;;;;5072106;28;20493;-57
2021/05/30 07:08:38;;;;;;;6.70;5.43;;;;;;;;;;5071796;28;20441;-52
2021/05/30 07:11:05;;;;;;;7.60;6.00;;;;;;;;;;5070591;28;20467;-58
2021/05/30 07:13:39;;;;;;;6.93;5.57;;;;;;;;;;5070267;28;20453;-61
2021/05/30 07:16:07;;;;;;;8.30;6.00;;;;;;;;;;5069890;28;20503;-59
2021/05/30 07:18:41;;;;;;;7.63;5.93;;;;;;;;;;5071845;28;20484;-56
2021/05/30 07:21:15;;;;;;;9.93;5.90;;;;;;;;;;5070779;28;20504;-55
2021/05/30 07:23:42;;;;;;;7.90;4.90;;;;;;;;;;5069909;28;20487;-56
2021/05/30 07:26:09;;;;;;;7.60;5.20;;;;;;;;;;5070295;28;20457;-59
2021/05/30 07:28:37;;;;;;;12.97;6.30;;;;;;;;;;5070595;28;20465;-60
2021/05/30 07:31:04;;;;;;;7.70;5.67;;;;;;;;;;5070368;28;20449;-55
2021/05/30 07:33:33;;;;;;;7.83;5.40;;;;;;;;;;5070755;28;20512;-53
2021/05/30 07:36:03;;;;;;;7.90;5.80;;;;;;;;;;5070641;28;20453;-54
2021/05/30 07:38:33;;;;;;;10.70;5.90;;;;;;;;;;5071191;28;20472;-60
2021/05/30 07:41:04;;;;;;;7.93;5.03;;;;;;;;;;5072032;28;20445;-61
2021/05/30 07:43:31;;;;;;;6.97;4.83;;;;;;;;;;5071294;28;20491;-60
2021/05/30 07:45:59;;;;;;;7.00;5.80;;;;;;;;;;5069457;28;20449;-58
2021/05/30 07:48:41;;;;;;;7.17;5.30;;;;;;;;;;5069558;28;20464;-60
2021/05/30 07:51:09;;;;;;;8.40;4.80;;;;;;;;;;5055839;28;20457;-57
2021/05/30 07:53:36;;;;;;;5.67;4.53;;;;;;;;;;5069199;28;20492;-61
2021/05/30 07:56:03;;;;;;;6.40;4.63;;;;;;;;;;5069196;28;20453;-57
2021/05/30 07:58:32;;;;;;;5.97;4.53;;;;;;;;;;5069445;28;20516;-60
2021/05/30 08:01:10;;;;;;;6.20;4.03;;;;;;;;;;5070045;28;20547;-59
2021/05/30 08:03:37;;;;;;;10.90;5.70;;;;;;;;;;5056570;28;20540;-57
2021/05/30 08:06:06;;;;;;;7.07;4.90;;;;;;;;;;5069714;28;20452;-60
2021/05/30 08:08:33;;;;;;;7.47;5.53;;;;;;;;;;5068630;28;20452;-56
2021/05/30 08:11:00;;;;;;;9.40;5.43;;;;;;;;;;5069921;28;20521;-60
2021/05/30 08:13:38;;;;;;;6.10;5.03;;;;;;;;;;5068295;28;20438;-58
2021/05/30 08:16:05;;;;;;;7.60;4.80;;;;;;;;;;5067882;28;20468;-61
2021/05/30 08:18:33;;;;;;;8.87;5.67;;;;;;;;;;5069166;28;20457;-59
2021/05/30 08:21:01;;;;;;;8.23;4.00;;;;;;;;;;5069837;28;20437;-59
2021/05/30 08:23:28;;;;;;;8.23;4.90;;;;;;;;;;5070516;28;20578;-61
2021/05/30 08:26:03;;;;;;;5.60;4.40;;;;;;;;;;5070721;28;20433;-58
2021/05/30 08:28:48;;;;;;;7.17;4.87;;;;;;;;;;5061237;28;20468;-58
2021/05/30 08:31:30;;;;;;;14.27;6.20;;;;;;;;;;5059080;28;20606;-59
2021/05/30 08:33:58;;;;;;;5.80;4.20;;;;;;;;;;5061357;28;20563;-61
2021/05/30 08:36:24;;;;;;;8.63;4.33;;;;;;;;;;5061542;28;20477;-53
2021/05/30 08:38:51;;;;;;;9.50;5.00;;;;;;;;;;5061515;28;20560;-58
2021/05/30 08:41:20;;;;;;;5.70;4.50;;;;;;;;;;5059520;28;20458;-57
2021/05/30 08:43:47;;;;;;;7.43;5.10;;;;;;;;;;5063657;28;20824;-56
2021/05/30 08:46:14;;;;;;;5.97;3.70;;;;;;;;;;5066903;28;20460;-57
2021/05/30 08:48:41;;;;;;;6.40;4.07;;;;;;;;;;5071448;28;20463;-60
2021/05/30 08:51:12;;;;;;;5.93;4.10;;;;;;;;;;5071458;28;20456;-57
2021/05/30 08:53:50;;;;;;;4.27;3.20;;;;;;;;;;5073896;28;20595;-60
2021/05/30 08:56:17;;;;;;;4.17;2.90;;;;;;;;;;5072810;28;20508;-55
2021/05/30 08:58:48;;;;;;;4.70;3.23;;;;;;;;;;5065444;28;20461;-58
2021/05/30 09:01:16;;;;;;;6.80;3.70;;;;;;;;;;5070504;28;20456;-58
2021/05/30 09:06:58;;;;;;;4.43;2.90;;;;;;;;;;5072637;28;20480;-60
2021/05/30 09:09:37;;;;;;;4.60;2.90;;;;;;;;;;5064064;28;20525;-56
2021/05/30 09:12:31;;;;;;;4.97;2.53;;;;;;;;;;5072349;28;20460;-61
2021/05/30 09:15:03;;;;;;;5.13;2.47;;;;;;;;;;5073390;28;20472;-52
2021/05/30 09:17:32;;;;;;;4.00;3.07;;;;;;;;;;5070725;28;20481;-60
2021/05/30 09:20:04;;;;;;;7.60;2.90;;;;;;;;;;5071752;28;20471;-60
2021/05/30 09:22:37;;;;;;;4.20;2.60;;;;;;;;;;5059881;28;20453;-58
2021/05/30 09:25:09;;;;;;;4.30;2.87;;;;;;;;;;5073161;28;20476;-61
2021/05/30 09:27:41;;;;;;;4.33;2.43;;;;;;;;;;5068068;28;20437;-61
2021/05/30 09:30:09;;;;;;;3.57;2.60;;;;;;;;;;5065143;28;20471;-56
2021/05/30 09:32:52;;;;;;;4.73;3.10;;;;;;;;;;5072434;28;20579;-61
2021/05/30 09:35:20;;;;;;;4.27;2.77;;;;;;;;;;5066500;28;20481;-60
2021/05/30 09:37:57;;;;;;;4.33;3.20;;;;;;;;;;5070695;28;20670;-59
2021/05/30 09:40:34;;;;;;;4.67;3.37;;;;;;;;;;5070067;28;20456;-62
2021/05/30 09:43:05;;;;;;;6.53;3.00;;;;;;;;;;5059922;28;20550;-60
2021/05/30 09:45:32;;;;;;;4.37;3.13;;;;;;;;;;5070311;28;20489;-60
2021/05/30 09:47:59;;;;;;;5.93;3.00;;;;;;;;;;5056310;28;20456;-59
2021/05/30 09:50:26;;;;;;;4.53;2.83;;;;;;;;;;5072111;28;20457;-61
2021/05/30 09:52:53;;;;;;;6.50;3.17;;;;;;;;;;5066102;28;20461;-59
2021/05/30 09:55:23;;;;;;;4.20;2.60;;;;;;;;;;5068814;28;20461;-56
2021/05/30 09:58:11;;;;;;;3.60;2.23;;;;;;;;;;5067966;28;20504;-59
2021/05/30 10:00:49;;;;;;;3.77;2.57;;;;;;;;;;5072375;28;20461;-56
2021/05/30 10:03:27;;;;;;;4.60;2.77;;;;;;;;;;5060680;28;20468;-56
2021/05/30 10:05:55;;;;;;;6.40;2.80;;;;;;;;;;5073515;28;20445;-56
2021/05/30 10:08:25;;;;;;;3.10;2.10;;;;;;;;;;5073858;28;20492;-56
2021/05/30 10:10:56;;;;;;;5.20;2.10;;;;;;;;;;5073624;28;20495;-57
2021/05/30 10:13:24;;;;;;;4.33;2.40;;;;;;;;;;5072504;28;20465;-59
2021/05/30 10:15:51;;;;;;;4.47;2.77;;;;;;;;;;5071769;28;20453;-60
2021/05/30 10:18:21;;;;;;;4.37;2.83;;;;;;;;;;5057016;28;20468;-54
2021/05/30 10:20:50;;;;;;;3.93;2.57;;;;;;;;;;5062751;28;20868;-61
2021/05/30 10:23:18;;;;;;;6.50;3.60;;;;;;;;;;5070760;28;20476;-61
2021/05/30 10:25:46;;;;;;;6.40;2.70;;;;;;;;;;5061960;28;20488;-62
2021/05/30 10:28:16;;;;;;;5.00;2.63;;;;;;;;;;5071391;28;20492;-59
2021/05/30 10:30:45;;;;;;;5.23;3.27;;;;;;;;;;5068266;28;20457;-60
2021/05/30 10:33:22;;;;;;;6.73;2.70;;;;;;;;;;5056320;28;20481;-54
2021/05/30 10:35:53;;;;;;;5.07;3.00;;;;;;;;;;5055827;28;20481;-56
2021/05/30 10:38:43;;;;;;;4.83;2.77;;;;;;;;;;5070575;28;20469;-62
2021/05/30 10:41:15;;;;;;;5.57;2.60;;;;;;;;;;5054583;28;20464;-57
2021/05/30 10:43:43;;;;;;;3.10;2.37;;;;;;;;;;5066066;28;20461;-60
2021/05/30 10:46:14;;;;;;;5.27;3.63;;;;;;;;;;5065358;28;20514;-61
2021/05/30 10:48:42;;;;;;;5.43;3.50;;;;;;;;;;5053594;28;20437;-60
2021/05/30 10:51:29;;;;;;;3.20;2.10;;;;;;;;;;5064495;28;20453;-58
2021/05/30 10:54:07;;;;;;;5.23;2.90;;;;;;;;;;5068894;28;20453;-59
2021/05/30 10:56:37;;;;;;;3.60;2.60;;;;;;;;;;5066565;28;20576;-62
2021/05/30 10:59:22;;;;;;;3.23;2.47;;;;;;;;;;5050679;28;20530;-61
2021/05/30 11:04:59;;;;;;;4.50;3.07;;;;;;;;;;5010507;27;2725058;-61
2021/05/30 11:07:39;;;;;;;3.30;2.60;;;;;;;;;;5099952;28;20227;-59
2021/05/30 11:10:19;;;;;;;3.80;2.70;;;;;;;;;;5094046;28;20439;-57
2021/05/30 11:12:54;;;;;;;5.13;2.23;;;;;;;;;;5090322;28;20429;-62
2021/05/30 11:15:43;;;;;;;3.27;2.10;;;;;;;;;;5087014;28;20472;-58
2021/05/30 11:18:20;;;;;;;3.93;2.73;;;;;;;;;;5101895;28;20452;-55
2021/05/30 11:20:57;;;;;;;3.93;2.20;;;;;;;;;;5109825;28;20462;-61
2021/05/30 11:23:26;;;;;;;5.47;2.77;;;;;;;;;;5095633;28;20483;-57
2021/05/30 11:25:56;;;;;;;4.07;2.70;;;;;;;;;;5110244;28;20459;-58
2021/05/30 11:28:25;;;;;;;5.60;2.63;;;;;;;;;;5110016;28;20499;-59
2021/05/30 11:30:57;;;;;;;12.60;4.07;;;;;;;;;;5104800;28;20455;-59
2021/05/30 11:33:31;;;;;;;4.50;2.13;;;;;;;;;;5108508;28;20463;-60
2021/05/30 11:35:59;;;;;;;4.67;3.27;;;;;;;;;;5101857;28;20524;-60
2021/05/30 11:38:36;;;;;;;3.20;2.20;;;;;;;;;;5108911;28;20498;-59
2021/05/30 11:41:27;;;;;;;4.60;2.30;;;;;;;;;;5091714;28;20444;-57
2021/05/30 11:43:59;;;;;;;4.70;2.63;;;;;;;;;;5106796;28;20948;-62
2021/05/30 11:46:33;;;;;;;7.00;2.43;;;;;;;;;;5097059;28;20459;-56
2021/05/30 11:49:02;;;;;;;5.30;3.90;;;;;;;;;;5096493;28;20464;-57
2021/05/30 11:51:44;;;;;;;6.70;3.50;;;;;;;;;;5108105;28;20537;-61
2021/05/30 11:54:12;;;;;;;4.10;2.73;;;;;;;;;;5108773;28;20547;-61
2021/05/30 11:56:58;;;;;;;6.43;3.50;;;;;;;;;;5104921;28;20459;-55
2021/05/30 11:59:34;;;;;;;6.20;4.50;;;;;;;;;;5097943;28;20475;-56
2021/05/30 12:02:07;;;;;;;3.57;2.57;;;;;;;;;;5104340;28;20446;-57
2021/05/30 12:04:37;;;;;;;5.07;3.20;;;;;;;;;;5094797;28;20506;-57
2021/05/30 12:07:05;;;;;;;4.50;3.00;;;;;;;;;;5093491;28;20470;-57
2021/05/30 12:10:02;;;;;;;4.40;2.80;;;;;;;;;;5090765;28;20480;-57
2021/05/30 12:12:37;;;;;;;3.83;2.20;;;;;;;;;;5096950;28;20479;-57
2021/05/30 12:15:09;;;;;;;4.57;2.30;;;;;;;;;;5091182;28;20492;-59
2021/05/30 12:17:51;;;;;;;3.93;2.70;;;;;;;;;;5082719;28;20448;-61
2021/05/30 12:20:26;;;;;;;5.80;2.70;;;;;;;;;;5091165;28;20437;-59
2021/05/30 12:22:55;;;;;;;6.13;2.67;;;;;;;;;;5060984;28;20487;-58
2021/05/30 12:25:54;;;;;;;5.20;3.47;;;;;;;;;;5031914;28;20466;-58
2021/05/30 12:28:44;;;;;;;5.40;2.63;;;;;;;;;;5051139;28;20547;-59
2021/05/30 12:31:22;;;;;;;4.70;2.50;;;;;;;;;;5043477;28;20466;-55
2021/05/30 12:33:53;;;;;;;5.03;2.80;;;;;;;;;;5050245;28;20476;-59
2021/05/30 12:36:46;;;;;;;4.90;2.87;;;;;;;;;;5047959;28;20469;-58
2021/05/30 12:39:14;;;;;;;3.50;2.67;;;;;;;;;;5055331;28;20446;-62
2021/05/30 12:41:43;;;;;;;7.10;3.33;;;;;;;;;;5040302;28;20459;-61
2021/05/30 12:44:12;;;;;;;2.93;2.07;;;;;;;;;;5043381;28;20585;-61
2021/05/30 12:46:40;;;;;;;5.10;2.70;;;;;;;;;;5053046;28;20466;-60
2021/05/30 12:49:14;;;;;;;6.80;3.40;;;;;;;;;;5046091;28;20463;-61
2021/05/30 12:54:41;;;;;;;6.20;4.03;;;;;;;;;;5032372;28;20459;-60
2021/05/30 12:57:22;;;;;;;4.57;3.43;;;;;;;;;;5049140;28;20504;-59
2021/05/30 13:00:03;;;;;;;5.30;3.20;;;;;;;;;;5036364;28;20874;-59
2021/05/30 13:02:30;;;;;;;10.23;7.37;;;;;;;;;;5033061;28;20455;-60
2021/05/30 13:05:01;;;;;;;5.40;3.77;;;;;;;;;;5038568;28;20445;-60
2021/05/30 13:07:32;;;;;;;6.70;2.70;;;;;;;;;;5040923;28;20466;-58
2021/05/30 13:10:22;;;;;;;9.10;5.63;;;;;;;;;;5049163;28;20466;-61
2021/05/30 13:12:53;;;;;;;6.67;4.70;;;;;;;;;;5048234;28;20446;-58
2021/05/30 13:15:46;;;;;;;6.93;3.60;;;;;;;;;;5040730;28;20451;-58
2021/05/30 13:18:22;;;;;;;4.80;2.80;;;;;;;;;;5043231;28;20477;-53
2021/05/30 13:20:53;;;;;;;6.40;3.80;;;;;;;;;;5047093;28;20433;-57
2021/05/30 13:23:21;;;;;;;5.50;3.10;;;;;;;;;;5048174;28;20463;-58
2021/05/30 13:25:53;;;;;;;6.00;3.50;;;;;;;;;;5036487;28;20451;-55
2021/05/30 13:32:05;;;;;;;4.70;2.50;;;;;;;;;;5054668;28;20480;-60
2021/05/30 13:34:57;;;;;;;3.50;2.27;;;;;;;;;;5050166;28;20496;-56
2021/05/30 13:40:51;;;;;;;4.80;2.87;;;;;;;;;;5048464;28;20450;-60
2021/05/30 13:43:23;;;;;;;5.87;3.73;;;;;;;;;;5043244;28;20524;-56
2021/05/30 13:45:50;;;;;;;5.87;3.93;;;;;;;;;;5053253;28;20446;-54
2021/05/30 13:48:21;;;;;;;5.07;3.10;;;;;;;;;;5041552;28;20453;-59
2021/05/30 13:51:13;;;;;;;7.57;5.13;;;;;;;;;;5049417;28;20482;-59
2021/05/30 13:53:49;;;;;;;3.53;2.63;;;;;;;;;;5031905;28;20478;-57
2021/05/30 13:56:25;;;;;;;4.30;2.57;;;;;;;;;;5032440;28;20485;-55
2021/05/30 13:58:59;;;;;;;8.17;2.93;;;;;;;;;;5044302;28;20457;-59
2021/05/30 14:01:29;;;;;;;7.03;4.63;;;;;;;;;;5051589;28;20454;-61
2021/05/30 14:03:56;;;;;;;5.47;4.07;;;;;;;;;;5043371;28;20478;-59
2021/05/30 14:06:24;;;;;;;5.90;3.17;;;;;;;;;;5051454;28;20438;-57
2021/05/30 14:08:57;;;;;;;7.47;4.63;;;;;;;;;;5049490;28;20442;-56
2021/05/30 14:11:30;;;;;;;5.00;3.43;;;;;;;;;;5049281;28;20486;-57
2021/05/30 14:14:00;;;;;;;6.37;3.40;;;;;;;;;;5043349;28;20463;-55
2021/05/30 14:16:34;;;;;;;11.13;5.23;;;;;;;;;;5047171;28;20465;-61
2021/05/30 14:19:01;;;;;;;8.83;6.37;;;;;;;;;;5048965;28;20481;-59
2021/05/30 14:21:34;;;;;;;7.60;4.23;;;;;;;;;;5049904;28;20559;-57
2021/05/30 14:24:01;;;;;;;8.30;5.53;;;;;;;;;;5051939;28;20493;-57
2021/05/30 14:26:28;;;;;;;6.70;5.10;;;;;;;;;;5046117;28;20465;-59
2021/05/30 14:29:13;;;;;;;5.23;3.27;;;;;;;;;;5042231;28;20457;-60
2021/05/30 14:31:42;;;;;;;6.30;4.67;;;;;;;;;;5034008;28;20485;-60
2021/05/30 14:34:09;;;;;;;4.80;3.60;;;;;;;;;;5042463;28;20458;-57
2021/05/30 14:36:52;;;;;;;5.20;3.47;;;;;;;;;;5038275;28;20754;-58
2021/05/30 14:39:19;;;;;;;11.03;3.33;;;;;;;;;;5033906;28;20458;-57
2021/05/30 14:41:46;;;;;;;5.33;3.27;;;;;;;;;;5044465;28;20553;-57
2021/05/30 14:44:14;;;;;;;3.93;2.80;;;;;;;;;;5045797;28;20525;-60
2021/05/30 14:46:41;;;;;;;4.40;2.90;;;;;;;;;;5048519;28;20465;-57
2021/05/30 14:49:10;;;;;;;4.03;2.70;;;;;;;;;;5040230;28;20458;-51
2021/05/30 14:51:47;;;;;;;6.03;3.20;;;;;;;;;;5038195;28;20474;-58
2021/05/30 14:54:15;;;;;;;9.57;4.23;;;;;;;;;;5046207;28;20473;-60
2021/05/30 14:56:41;;;;;;;5.27;4.10;;;;;;;;;;5051051;28;20466;-60
2021/05/30 14:59:20;;;;;;;5.10;3.53;;;;;;;;;;5050818;28;20446;-59
2021/05/30 15:01:48;;;;;;;5.73;3.27;;;;;;;;;;5050874;28;20473;-62
2021/05/30 15:04:15;;;;;;;3.83;2.00;;;;;;;;;;5050847;28;20474;-61
2021/05/30 15:06:43;;;;;;;3.40;2.40;;;;;;;;;;5050944;28;20461;-59
2021/05/30 15:09:15;;;;;;;4.93;2.60;;;;;;;;;;5044898;28;20462;-62
2021/05/30 15:11:48;;;;;;;4.37;2.97;;;;;;;;;;5033210;28;20467;-54
2021/05/30 15:14:23;;;;;;;3.80;2.33;;;;;;;;;;5051232;28;20458;-60
2021/05/30 15:17:03;;;;;;;4.23;2.17;;;;;;;;;;5052200;28;20454;-58
2021/05/30 15:19:30;;;;;;;8.90;2.97;;;;;;;;;;5050664;28;20490;-59